sensor_id;sensor_type;location;lat;lon;timestamp;pressure;altitude;pressure_sealevel;temperature;humidity
29535;BME280;72082;52.650;8.116;2023-09-08T00:01:35;101483.88;;;22.10;53.35
29535;BME280;72082;52.650;8.116;2023-09-08T00:04:00;101477.84;;;22.08;53.39
29535;BME280;72082;52.650;8.116;2023-09-08T00:06:25;101476.34;;;22.03;53.36
29535;BME280;72082;52.650;8.116;2023-09-08T00:08:51;101472.91;;;22.01;53.50
29535;BME280;72082;52.650;8.116;2023-09-08T00:11:17;101472.06;;;22.00;53.54
29535;BME280;72082;52.650;8.116;2023-09-08T00:13:42;101476.50;;;21.98;53.48
29535;BME280;72082;52.650;8.116;2023-09-08T00:16:08;101473.19;;;21.95;53.48
29535;BME280;72082;52.650;8.116;2023-09-08T00:18:34;101473.34;;;21.90;53.81
29535;BME280;72082;52.650;8.116;2023-09-08T00:20:59;101480.44;;;21.87;53.74
29535;BME280;72082;52.650;8.116;2023-09-08T00:23:24;101481.34;;;21.86;53.94
29535;BME280;72082;52.650;8.116;2023-09-08T00:25:49;101480.44;;;21.87;53.78
29535;BME280;72082;52.650;8.116;2023-09-08T00:28:15;101480.44;;;21.87;53.65
29535;BME280;72082;52.650;8.116;2023-09-08T00:30:40;101482.13;;;21.88;53.79
29535;BME280;72082;52.650;8.116;2023-09-08T00:33:05;101485.69;;;21.85;53.99
29535;BME280;72082;52.650;8.116;2023-09-08T00:35:30;101480.53;;;21.84;53.80
29535;BME280;72082;52.650;8.116;2023-09-08T00:37:55;101474.53;;;21.82;54.07
29535;BME280;72082;52.650;8.116;2023-09-08T00:40:21;101476.28;;;21.81;53.86
29535;BME280;72082;52.650;8.116;2023-09-08T00:42:46;101474.53;;;21.82;53.96
29535;BME280;72082;52.650;8.116;2023-09-08T00:45:11;101475.50;;;21.79;54.27
29535;BME280;72082;52.650;8.116;2023-09-08T00:47:36;101478.22;;;21.76;53.97
29535;BME280;72082;52.650;8.116;2023-09-08T00:50:03;101467.88;;;21.73;54.42
29535;BME280;72082;52.650;8.116;2023-09-08T00:52:29;101484.44;;;21.72;54.38
29535;BME280;72082;52.650;8.116;2023-09-08T00:54:54;101476.78;;;21.68;54.46
29535;BME280;72082;52.650;8.116;2023-09-08T00:57:20;101473.50;;;21.63;54.55
29535;BME280;72082;52.650;8.116;2023-09-08T00:59:47;101465.84;;;21.58;54.45
29535;BME280;72082;52.650;8.116;2023-09-08T01:02:13;101465.06;;;21.56;54.33
29535;BME280;72082;52.650;8.116;2023-09-08T01:04:38;101467.78;;;21.53;54.41
29535;BME280;72082;52.650;8.116;2023-09-08T01:07:04;101458.34;;;21.49;54.72
29535;BME280;72082;52.650;8.116;2023-09-08T01:09:29;101464.59;;;21.45;54.86
29535;BME280;72082;52.650;8.116;2023-09-08T01:11:54;101460.38;;;21.41;54.83
29535;BME280;72082;52.650;8.116;2023-09-08T01:14:20;101464.88;;;21.37;54.78
29535;BME280;72082;52.650;8.116;2023-09-08T01:16:45;101465.03;;;21.33;55.28
29535;BME280;72082;52.650;8.116;2023-09-08T01:19:12;101457.34;;;21.30;54.85
29535;BME280;72082;52.650;8.116;2023-09-08T01:22:08;101454.84;;;21.27;55.32
29535;BME280;72082;52.650;8.116;2023-09-08T01:27:32;101464.78;;;21.16;55.34
29535;BME280;72082;52.650;8.116;2023-09-08T01:29:59;101458.00;;;21.12;55.60
29535;BME280;72082;52.650;8.116;2023-09-08T01:32:25;101459.97;;;21.04;55.44
29535;BME280;72082;52.650;8.116;2023-09-08T01:34:51;101462.78;;;20.98;55.34
29535;BME280;72082;52.650;8.116;2023-09-08T01:37:18;101462.09;;;20.92;55.44
29535;BME280;72082;52.650;8.116;2023-09-08T01:39:43;101453.59;;;20.87;55.72
29535;BME280;72082;52.650;8.116;2023-09-08T01:42:08;101454.63;;;20.82;55.79
29535;BME280;72082;52.650;8.116;2023-09-08T01:44:33;101453.97;;;20.75;55.96
29535;BME280;72082;52.650;8.116;2023-09-08T01:46:58;101455.06;;;20.70;55.98
29535;BME280;72082;52.650;8.116;2023-09-08T01:49:24;101458.72;;;20.64;55.80
29535;BME280;72082;52.650;8.116;2023-09-08T01:51:49;101453.59;;;20.61;55.76
29535;BME280;72082;52.650;8.116;2023-09-08T01:54:15;101460.66;;;20.58;55.81
29535;BME280;72082;52.650;8.116;2023-09-08T01:56:40;101459.88;;;20.56;56.07
29535;BME280;72082;52.650;8.116;2023-09-08T01:59:05;101457.34;;;20.53;55.92
29535;BME280;72082;52.650;8.116;2023-09-08T02:01:30;101462.66;;;20.50;56.15
29535;BME280;72082;52.650;8.116;2023-09-08T02:03:55;101461.00;;;20.47;56.02
29535;BME280;72082;52.650;8.116;2023-09-08T02:06:21;101460.31;;;20.42;56.30
29535;BME280;72082;52.650;8.116;2023-09-08T02:08:46;101467.41;;;20.37;56.47
29535;BME280;72082;52.650;8.116;2023-09-08T02:11:11;101459.75;;;20.33;56.28
29535;BME280;72082;52.650;8.116;2023-09-08T02:13:36;101467.72;;;20.28;56.65
29535;BME280;72082;52.650;8.116;2023-09-08T02:16:02;101466.00;;;20.27;56.78
29535;BME280;72082;52.650;8.116;2023-09-08T02:18:27;101459.91;;;20.28;56.26
29535;BME280;72082;52.650;8.116;2023-09-08T02:20:52;101458.13;;;20.28;56.59
29535;BME280;72082;52.650;8.116;2023-09-08T02:23:17;101460.66;;;20.31;56.78
29535;BME280;72082;52.650;8.116;2023-09-08T02:25:43;101455.41;;;20.33;56.72
29535;BME280;72082;52.650;8.116;2023-09-08T02:28:08;101454.56;;;20.33;56.40
29535;BME280;72082;52.650;8.116;2023-09-08T02:30:33;101454.66;;;20.29;56.40
29535;BME280;72082;52.650;8.116;2023-09-08T02:32:58;101447.00;;;20.25;56.95
29535;BME280;72082;52.650;8.116;2023-09-08T02:35:24;101446.28;;;20.18;56.81
29535;BME280;72082;52.650;8.116;2023-09-08T02:37:49;101447.31;;;20.13;56.62
29535;BME280;72082;52.650;8.116;2023-09-08T02:40:14;101455.44;;;20.04;56.99
29535;BME280;72082;52.650;8.116;2023-09-08T02:42:39;101448.72;;;19.97;57.00
29535;BME280;72082;52.650;8.116;2023-09-08T02:45:05;101447.88;;;19.95;57.41
29535;BME280;72082;52.650;8.116;2023-09-08T02:47:30;101443.59;;;19.94;57.42
29535;BME280;72082;52.650;8.116;2023-09-08T02:49:55;101446.38;;;19.88;57.39
29535;BME280;72082;52.650;8.116;2023-09-08T02:52:21;101448.34;;;19.81;57.37
29535;BME280;72082;52.650;8.116;2023-09-08T02:54:46;101444.09;;;19.77;57.46
29535;BME280;72082;52.650;8.116;2023-09-08T02:57:11;101443.38;;;19.72;57.51
29535;BME280;72082;52.650;8.116;2023-09-08T02:59:36;101455.63;;;19.68;57.70
29535;BME280;72082;52.650;8.116;2023-09-08T03:02:02;101451.34;;;19.66;57.57
29535;BME280;72082;52.650;8.116;2023-09-08T03:04:27;101451.47;;;19.63;57.20
29535;BME280;72082;52.650;8.116;2023-09-08T03:06:52;101450.63;;;19.61;57.78
29535;BME280;72082;52.650;8.116;2023-09-08T03:09:17;101453.22;;;19.62;57.21
29535;BME280;72082;52.650;8.116;2023-09-08T03:11:42;101453.16;;;19.64;57.74
29535;BME280;72082;52.650;8.116;2023-09-08T03:14:08;101451.47;;;19.63;57.59
29535;BME280;72082;52.650;8.116;2023-09-08T03:16:33;101444.63;;;19.59;57.54
29535;BME280;72082;52.650;8.116;2023-09-08T03:18:58;101448.13;;;19.58;58.00
29535;BME280;72082;52.650;8.116;2023-09-08T03:21:23;101443.78;;;19.58;57.76
29535;BME280;72082;52.650;8.116;2023-09-08T03:23:49;101443.88;;;19.55;57.81
29535;BME280;72082;52.650;8.116;2023-09-08T03:26:14;101448.25;;;19.53;57.92
29535;BME280;72082;52.650;8.116;2023-09-08T03:28:39;101447.41;;;19.53;57.72
29535;BME280;72082;52.650;8.116;2023-09-08T03:31:05;101437.91;;;19.52;58.10
29535;BME280;72082;52.650;8.116;2023-09-08T03:33:31;101437.06;;;19.51;58.20
29535;BME280;72082;52.650;8.116;2023-09-08T03:35:56;101441.41;;;19.51;58.28
29535;BME280;72082;52.650;8.116;2023-09-08T03:38:22;101437.94;;;19.50;58.31
29535;BME280;72082;52.650;8.116;2023-09-08T03:40:47;101443.28;;;19.46;58.52
29535;BME280;72082;52.650;8.116;2023-09-08T03:43:13;101441.59;;;19.45;57.95
29535;BME280;72082;52.650;8.116;2023-09-08T03:45:38;101432.97;;;19.43;58.37
29535;BME280;72082;52.650;8.116;2023-09-08T03:48:04;101433.81;;;19.43;58.08
29535;BME280;72082;52.650;8.116;2023-09-08T03:50:29;101432.88;;;19.46;58.23
29535;BME280;72082;52.650;8.116;2023-09-08T03:52:55;101434.53;;;19.48;58.71
29535;BME280;72082;52.650;8.116;2023-09-08T03:55:20;101441.53;;;19.46;58.39
29535;BME280;72082;52.650;8.116;2023-09-08T03:57:46;101436.41;;;19.45;58.59
29535;BME280;72082;52.650;8.116;2023-09-08T04:00:11;101437.44;;;19.39;58.46
29535;BME280;72082;52.650;8.116;2023-09-08T04:02:36;101434.88;;;19.36;58.63
29535;BME280;72082;52.650;8.116;2023-09-08T04:05:02;101426.22;;;19.36;58.80
29535;BME280;72082;52.650;8.116;2023-09-08T04:07:28;101433.22;;;19.34;59.22
29535;BME280;72082;52.650;8.116;2023-09-08T04:09:53;101432.28;;;19.35;58.78
29535;BME280;72082;52.650;8.116;2023-09-08T04:12:18;101431.56;;;19.30;58.65
29535;BME280;72082;52.650;8.116;2023-09-08T04:14:43;101422.97;;;19.28;58.69
29535;BME280;72082;52.650;8.116;2023-09-08T04:17:09;101432.50;;;19.27;59.06
29535;BME280;72082;52.650;8.116;2023-09-08T04:19:34;101429.19;;;19.22;59.13
29535;BME280;72082;52.650;8.116;2023-09-08T04:21:59;101428.53;;;19.16;59.20
29535;BME280;72082;52.650;8.116;2023-09-08T04:24:24;101416.56;;;19.10;59.35
29535;BME280;72082;52.650;8.116;2023-09-08T04:26:49;101420.03;;;19.09;59.37
29535;BME280;72082;52.650;8.116;2023-09-08T04:29:15;101419.09;;;19.11;59.33
29535;BME280;72082;52.650;8.116;2023-09-08T04:31:40;101422.59;;;19.10;59.12
29535;BME280;72082;52.650;8.116;2023-09-08T04:34:05;101418.25;;;19.11;59.23
29535;BME280;72082;52.650;8.116;2023-09-08T04:36:30;101417.34;;;19.12;59.50
29535;BME280;72082;52.650;8.116;2023-09-08T04:38:56;101420.00;;;19.10;59.56
29535;BME280;72082;52.650;8.116;2023-09-08T04:41:21;101415.75;;;19.08;59.65
29535;BME280;72082;52.650;8.116;2023-09-08T04:43:46;101415.75;;;19.08;59.42
29535;BME280;72082;52.650;8.116;2023-09-08T04:46:12;101414.88;;;19.07;59.54
29535;BME280;72082;52.650;8.116;2023-09-08T04:48:37;101414.88;;;19.07;59.73
29535;BME280;72082;52.650;8.116;2023-09-08T04:51:02;101413.09;;;19.09;59.67
29535;BME280;72082;52.650;8.116;2023-09-08T04:53:27;101418.25;;;19.11;59.68
29535;BME280;72082;52.650;8.116;2023-09-08T04:55:52;101418.25;;;19.11;59.13
29535;BME280;72082;52.650;8.116;2023-09-08T04:58:18;101422.56;;;19.12;59.33
29535;BME280;72082;52.650;8.116;2023-09-08T05:00:43;101418.16;;;19.14;59.56
29535;BME280;72082;52.650;8.116;2023-09-08T05:03:11;101419.94;;;19.12;59.41
29535;BME280;72082;52.650;8.116;2023-09-08T05:05:40;101413.91;;;19.11;59.76
29535;BME280;72082;52.650;8.116;2023-09-08T05:08:05;101425.94;;;19.14;59.58
29535;BME280;72082;52.650;8.116;2023-09-08T05:10:31;101427.66;;;19.15;59.84
29535;BME280;72082;52.650;8.116;2023-09-08T05:12:57;101431.13;;;19.16;59.68
29535;BME280;72082;52.650;8.116;2023-09-08T05:15:22;101426.78;;;19.16;59.77
29535;BME280;72082;52.650;8.116;2023-09-08T05:17:47;101424.13;;;19.18;59.68
29535;BME280;72082;52.650;8.116;2023-09-08T05:20:14;101422.41;;;19.18;59.39
29535;BME280;72082;52.650;8.116;2023-09-08T05:22:39;101431.94;;;19.18;59.79
29535;BME280;72082;52.650;8.116;2023-09-08T05:25:06;101425.94;;;19.16;60.15
29535;BME280;72082;52.650;8.116;2023-09-08T05:27:31;101424.28;;;19.13;59.72
29535;BME280;72082;52.650;8.116;2023-09-08T05:29:57;101426.16;;;19.08;59.89
29535;BME280;72082;52.650;8.116;2023-09-08T05:32:22;101430.47;;;19.07;60.12
29535;BME280;72082;52.650;8.116;2023-09-08T05:34:47;101427.81;;;19.10;60.20
29535;BME280;72082;52.650;8.116;2023-09-08T05:37:12;101426.81;;;19.15;60.00
29535;BME280;72082;52.650;8.116;2023-09-08T05:39:38;101444.19;;;19.13;62.31
29535;BME280;72082;52.650;8.116;2023-09-08T05:42:03;101430.09;;;19.21;62.47
29535;BME280;72082;52.650;8.116;2023-09-08T05:44:28;101435.16;;;19.26;62.10
29535;BME280;72082;52.650;8.116;2023-09-08T05:46:54;101432.50;;;19.29;62.08
29535;BME280;72082;52.650;8.116;2023-09-08T05:49:19;101423.75;;;19.31;61.24
29535;BME280;72082;52.650;8.116;2023-09-08T05:51:44;101418.56;;;19.31;61.39
29535;BME280;72082;52.650;8.116;2023-09-08T05:54:10;101423.69;;;19.34;61.30
29535;BME280;72082;52.650;8.116;2023-09-08T05:56:37;101419.31;;;19.35;61.08
29535;BME280;72082;52.650;8.116;2023-09-08T05:59:02;101419.25;;;19.38;61.20
29535;BME280;72082;52.650;8.116;2023-09-08T06:01:28;101420.03;;;19.41;60.91
29535;BME280;72082;52.650;8.116;2023-09-08T06:03:53;101424.31;;;19.42;61.15
29535;BME280;72082;52.650;8.116;2023-09-08T06:06:18;101424.22;;;19.45;61.11
29535;BME280;72082;52.650;8.116;2023-09-08T06:08:44;101424.13;;;19.50;61.11
29535;BME280;72082;52.650;8.116;2023-09-08T06:11:09;101423.19;;;19.52;61.10
29535;BME280;72082;52.650;8.116;2023-09-08T06:13:34;101422.97;;;19.58;60.75
29535;BME280;72082;52.650;8.116;2023-09-08T06:15:59;101422.00;;;19.62;60.67
29535;BME280;72082;52.650;8.116;2023-09-08T06:18:27;101422.66;;;19.69;60.73
29535;BME280;72082;52.650;8.116;2023-09-08T06:20:53;101419.00;;;19.76;60.32
29535;BME280;72082;52.650;8.116;2023-09-08T06:23:20;101415.31;;;19.83;60.29
29535;BME280;72082;52.650;8.116;2023-09-08T06:25:45;101416.03;;;19.88;60.09
29535;BME280;72082;52.650;8.116;2023-09-08T06:28:10;101411.59;;;19.92;60.44
29535;BME280;72082;52.650;8.116;2023-09-08T06:30:35;101413.19;;;19.96;60.35
29535;BME280;72082;52.650;8.116;2023-09-08T06:33:01;101413.94;;;19.99;60.50
29535;BME280;72082;52.650;8.116;2023-09-08T06:35:26;101413.81;;;20.02;59.61
29535;BME280;72082;52.650;8.116;2023-09-08T06:37:51;101416.31;;;20.07;60.22
29535;BME280;72082;52.650;8.116;2023-09-08T06:40:16;101413.53;;;20.11;60.03
29535;BME280;72082;52.650;8.116;2023-09-08T06:42:42;101416.00;;;20.16;59.97
29535;BME280;72082;52.650;8.116;2023-09-08T06:45:07;101408.09;;;20.19;59.87
29535;BME280;72082;52.650;8.116;2023-09-08T06:47:33;101417.53;;;20.23;60.04
29535;BME280;72082;52.650;8.116;2023-09-08T06:49:58;101414.84;;;20.26;60.16
29535;BME280;72082;52.650;8.116;2023-09-08T06:52:23;101410.28;;;20.33;59.77
29535;BME280;72082;52.650;8.116;2023-09-08T06:54:48;101409.19;;;20.40;60.05
29535;BME280;72082;52.650;8.116;2023-09-08T06:57:14;101405.53;;;20.45;59.88
29535;BME280;72082;52.650;8.116;2023-09-08T06:59:39;101414.00;;;20.52;59.98
29535;BME280;72082;52.650;8.116;2023-09-08T07:02:04;101405.09;;;20.57;59.70
29535;BME280;72082;52.650;8.116;2023-09-08T07:04:30;101404.91;;;20.63;59.42
29535;BME280;72082;52.650;8.116;2023-09-08T07:06:55;101416.88;;;20.69;59.42
29535;BME280;72082;52.650;8.116;2023-09-08T07:09:20;101420.97;;;20.76;59.47
29535;BME280;72082;52.650;8.116;2023-09-08T07:11:46;101423.31;;;20.83;59.61
29535;BME280;72082;52.650;8.116;2023-09-08T07:14:11;101421.34;;;20.90;59.55
29535;BME280;72082;52.650;8.116;2023-09-08T07:16:36;101420.19;;;20.99;59.29
29535;BME280;72082;52.650;8.116;2023-09-08T07:19:01;101422.63;;;21.03;59.07
29535;BME280;72082;52.650;8.116;2023-09-08T07:21:27;101415.53;;;21.08;59.25
29535;BME280;72082;52.650;8.116;2023-09-08T07:23:52;101416.22;;;21.13;59.23
29535;BME280;72082;52.650;8.116;2023-09-08T07:26:17;101416.00;;;21.19;59.54
29535;BME280;72082;52.650;8.116;2023-09-08T07:28:42;101414.78;;;21.28;59.42
29535;BME280;72082;52.650;8.116;2023-09-08T07:31:07;101417.13;;;21.35;59.40
29535;BME280;72082;52.650;8.116;2023-09-08T07:33:33;101417.69;;;21.43;59.03
29535;BME280;72082;52.650;8.116;2023-09-08T07:36:05;101408.75;;;21.50;58.99
29535;BME280;72082;52.650;8.116;2023-09-08T07:38:31;101410.22;;;21.58;59.01
29535;BME280;72082;52.650;8.116;2023-09-08T07:40:56;101416.03;;;21.64;59.06
29535;BME280;72082;52.650;8.116;2023-09-08T07:43:21;101411.44;;;21.71;58.95
29535;BME280;72082;52.650;8.116;2023-09-08T07:45:47;101415.59;;;21.76;58.92
29535;BME280;72082;52.650;8.116;2023-09-08T07:48:12;101414.41;;;21.83;58.82
29535;BME280;72082;52.650;8.116;2023-09-08T07:50:37;101410.69;;;21.90;58.91
29535;BME280;72082;52.650;8.116;2023-09-08T07:53:03;101410.38;;;21.98;58.78
29535;BME280;72082;52.650;8.116;2023-09-08T07:55:28;101411.78;;;22.06;58.75
29535;BME280;72082;52.650;8.116;2023-09-08T07:57:54;101407.97;;;22.15;58.62
29535;BME280;72082;52.650;8.116;2023-09-08T08:00:19;101404.19;;;22.22;58.67
29535;BME280;72082;52.650;8.116;2023-09-08T08:02:46;101394.22;;;22.32;58.52
29535;BME280;72082;52.650;8.116;2023-09-08T08:05:12;101403.44;;;22.40;58.30
29535;BME280;72082;52.650;8.116;2023-09-08T08:07:38;101396.97;;;22.49;58.39
29535;BME280;72082;52.650;8.116;2023-09-08T08:10:04;101388.81;;;22.56;58.19
29535;BME280;72082;52.650;8.116;2023-09-08T08:12:29;101397.13;;;22.66;58.35
29535;BME280;72082;52.650;8.116;2023-09-08T08:14:54;101395.13;;;22.72;58.21
29535;BME280;72082;52.650;8.116;2023-09-08T08:17:20;101404.41;;;22.80;58.30
29535;BME280;72082;52.650;8.116;2023-09-08T08:19:45;101405.00;;;22.86;58.31
29535;BME280;72082;52.650;8.116;2023-09-08T08:22:10;101402.91;;;22.94;58.17
29535;BME280;72082;52.650;8.116;2023-09-08T08:24:36;101397.34;;;23.02;58.22
29535;BME280;72082;52.650;8.116;2023-09-08T08:27:01;101402.28;;;23.08;58.20
29535;BME280;72082;52.650;8.116;2023-09-08T08:29:26;101407.09;;;23.17;58.22
29535;BME280;72082;52.650;8.116;2023-09-08T08:31:51;101411.88;;;23.27;59.00
29535;BME280;72082;52.650;8.116;2023-09-08T08:34:17;101411.56;;;23.33;58.77
29535;BME280;72082;52.650;8.116;2023-09-08T08:36:42;101400.81;;;23.41;58.99
29535;BME280;72082;52.650;8.116;2023-09-08T08:39:07;101396.00;;;23.51;58.69
29535;BME280;72082;52.650;8.116;2023-09-08T08:41:32;101399.97;;;23.59;58.39
29535;BME280;72082;52.650;8.116;2023-09-08T08:43:58;101386.38;;;23.70;58.50
29535;BME280;72082;52.650;8.116;2023-09-08T08:46:24;101384.94;;;23.81;58.16
29535;BME280;72082;52.650;8.116;2023-09-08T08:48:51;101378.19;;;23.94;58.37
29535;BME280;72082;52.650;8.116;2023-09-08T08:51:17;101375.03;;;24.05;58.17
29535;BME280;72082;52.650;8.116;2023-09-08T08:53:44;101384.19;;;24.15;58.20
29535;BME280;72082;52.650;8.116;2023-09-08T08:56:09;101385.41;;;24.25;57.71
29535;BME280;72082;52.650;8.116;2023-09-08T08:58:37;101384.97;;;24.34;57.66
29535;BME280;72082;52.650;8.116;2023-09-08T09:01:04;101386.22;;;24.44;57.75
29535;BME280;72082;52.650;8.116;2023-09-08T09:03:31;101384.06;;;24.52;57.79
29535;BME280;72082;52.650;8.116;2023-09-08T09:05:56;101389.75;;;24.61;57.46
29535;BME280;72082;52.650;8.116;2023-09-08T09:08:22;101385.78;;;24.69;57.69
29535;BME280;72082;52.650;8.116;2023-09-08T09:10:49;101395.91;;;24.77;57.68
29535;BME280;72082;52.650;8.116;2023-09-08T09:13:14;101398.16;;;24.84;58.01
29535;BME280;72082;52.650;8.116;2023-09-08T09:15:39;101396.06;;;24.91;57.56
29535;BME280;72082;52.650;8.116;2023-09-08T09:18:06;101387.78;;;24.98;57.54
29535;BME280;72082;52.650;8.116;2023-09-08T09:20:32;101386.56;;;25.05;57.73
29535;BME280;72082;52.650;8.116;2023-09-08T09:22:57;101389.53;;;25.15;57.74
29535;BME280;72082;52.650;8.116;2023-09-08T09:27:57;101383.13;;;25.36;57.84
29535;BME280;72082;52.650;8.116;2023-09-08T09:30:23;101383.63;;;25.43;57.68
29535;BME280;72082;52.650;8.116;2023-09-08T09:32:50;101391.13;;;25.50;57.42
29535;BME280;72082;52.650;8.116;2023-09-08T09:35:39;101379.75;;;25.65;57.34
29535;BME280;72082;52.650;8.116;2023-09-08T09:38:05;101381.63;;;25.79;56.92
29535;BME280;72082;52.650;8.116;2023-09-08T09:40:30;101395.88;;;25.91;58.29
29535;BME280;72082;52.650;8.116;2023-09-08T09:42:55;101389.84;;;26.04;58.13
29535;BME280;72082;52.650;8.116;2023-09-08T09:45:27;101382.28;;;26.14;57.68
29535;BME280;72082;52.650;8.116;2023-09-08T09:47:52;101384.31;;;26.24;57.65
29535;BME280;72082;52.650;8.116;2023-09-08T09:50:29;101376.91;;;26.31;57.67
29535;BME280;72082;52.650;8.116;2023-09-08T09:52:57;101377.41;;;26.38;57.55
29535;BME280;72082;52.650;8.116;2023-09-08T09:55:23;101371.69;;;26.45;57.27
29535;BME280;72082;52.650;8.116;2023-09-08T09:57:49;101373.88;;;26.53;57.58
29535;BME280;72082;52.650;8.116;2023-09-08T10:00:14;101373.41;;;26.60;57.06
29535;BME280;72082;52.650;8.116;2023-09-08T10:02:40;101373.78;;;26.68;57.05
29535;BME280;72082;52.650;8.116;2023-09-08T10:05:11;101371.56;;;26.76;56.98
29535;BME280;72082;52.650;8.116;2023-09-08T10:07:36;101379.13;;;26.82;57.19
29535;BME280;72082;52.650;8.116;2023-09-08T10:10:02;101369.16;;;26.87;57.17
29535;BME280;72082;52.650;8.116;2023-09-08T10:12:28;101374.25;;;26.90;56.69
29535;BME280;72082;52.650;8.116;2023-09-08T10:14:55;101370.47;;;26.94;56.77
29535;BME280;72082;52.650;8.116;2023-09-08T10:17:25;101372.81;;;26.99;57.00
29535;BME280;72082;52.650;8.116;2023-09-08T10:19:56;101370.19;;;26.99;57.14
29535;BME280;72082;52.650;8.116;2023-09-08T10:22:26;101376.00;;;27.04;57.25
29535;BME280;72082;52.650;8.116;2023-09-08T10:24:55;101368.59;;;27.11;57.26
29535;BME280;72082;52.650;8.116;2023-09-08T10:27:23;101375.91;;;27.20;57.11
29535;BME280;72082;52.650;8.116;2023-09-08T10:29:49;101379.94;;;27.25;57.01
29535;BME280;72082;52.650;8.116;2023-09-08T10:32:15;101367.88;;;27.35;56.96
29535;BME280;72082;52.650;8.116;2023-09-08T10:34:42;101364.72;;;27.44;56.43
29535;BME280;72082;52.650;8.116;2023-09-08T10:37:34;101360.56;;;27.54;56.98
29535;BME280;72082;52.650;8.116;2023-09-08T10:40:25;101363.44;;;27.64;56.65
29535;BME280;72082;52.650;8.116;2023-09-08T10:43:06;101360.97;;;27.75;56.63
29535;BME280;72082;52.650;8.116;2023-09-08T10:45:32;101365.66;;;27.84;56.71
29535;BME280;72082;52.650;8.116;2023-09-08T10:47:57;101367.66;;;27.93;55.95
29535;BME280;72082;52.650;8.116;2023-09-08T10:50:35;101358.97;;;28.05;55.89
29535;BME280;72082;52.650;8.116;2023-09-08T10:55:42;101350.50;;;28.27;56.07
29535;BME280;72082;52.650;8.116;2023-09-08T10:58:09;101364.00;;;28.35;56.09
29535;BME280;72082;52.650;8.116;2023-09-08T11:00:46;101358.53;;;28.51;55.70
29535;BME280;72082;52.650;8.116;2023-09-08T11:03:12;101356.78;;;28.64;55.62
29535;BME280;72082;52.650;8.116;2023-09-08T11:05:37;101357.75;;;28.75;55.44
29535;BME280;72082;52.650;8.116;2023-09-08T11:08:02;101357.63;;;28.90;55.30
29535;BME280;72082;52.650;8.116;2023-09-08T11:10:28;101354.53;;;29.08;55.34
29535;BME280;72082;52.650;8.116;2023-09-08T11:12:54;101347.91;;;29.52;55.19
29535;BME280;72082;52.650;8.116;2023-09-08T11:15:19;101346.91;;;30.47;54.00
29535;BME280;72082;52.650;8.116;2023-09-08T11:17:45;101339.31;;;31.65;52.78
29535;BME280;72082;52.650;8.116;2023-09-08T11:20:10;101328.31;;;32.93;51.88
29535;BME280;72082;52.650;8.116;2023-09-08T11:22:37;101314.81;;;34.13;50.89
29535;BME280;72082;52.650;8.116;2023-09-08T11:25:03;101325.97;;;35.19;49.56
29535;BME280;72082;52.650;8.116;2023-09-08T11:27:28;101314.22;;;36.10;49.20
29535;BME280;72082;52.650;8.116;2023-09-08T11:29:54;101323.19;;;36.86;48.49
29535;BME280;72082;52.650;8.116;2023-09-08T11:32:19;101317.94;;;37.44;48.21
29535;BME280;72082;52.650;8.116;2023-09-08T11:34:44;101315.63;;;38.05;48.08
29535;BME280;72082;52.650;8.116;2023-09-08T11:37:14;101307.97;;;38.65;47.57
29535;BME280;72082;52.650;8.116;2023-09-08T11:39:40;101318.47;;;39.22;47.20
29535;BME280;72082;52.650;8.116;2023-09-08T11:42:07;101305.75;;;39.69;46.94
29535;BME280;72082;52.650;8.116;2023-09-08T11:44:33;101297.81;;;40.13;46.26
29535;BME280;72082;52.650;8.116;2023-09-08T11:47:00;101305.84;;;40.50;45.99
29535;BME280;72082;52.650;8.116;2023-09-08T11:49:25;101303.16;;;40.80;46.35
29535;BME280;72082;52.650;8.116;2023-09-08T11:51:51;101301.97;;;41.18;45.68
29535;BME280;72082;52.650;8.116;2023-09-08T11:54:16;101296.38;;;41.55;45.21
29535;BME280;72082;52.650;8.116;2023-09-08T11:56:42;101292.09;;;41.82;45.36
29535;BME280;72082;52.650;8.116;2023-09-08T11:59:08;101279.72;;;41.94;45.05
29535;BME280;72082;52.650;8.116;2023-09-08T12:01:33;101278.25;;;42.13;44.78
29535;BME280;72082;52.650;8.116;2023-09-08T12:03:58;101284.34;;;42.34;44.19
29535;BME280;72082;52.650;8.116;2023-09-08T12:06:25;101275.41;;;42.27;43.96
29535;BME280;72082;52.650;8.116;2023-09-08T12:08:50;101291.91;;;41.90;44.63
29535;BME280;72082;52.650;8.116;2023-09-08T12:11:16;101297.00;;;41.36;45.55
29535;BME280;72082;52.650;8.116;2023-09-08T12:13:41;101283.06;;;41.11;45.57
29535;BME280;72082;52.650;8.116;2023-09-08T12:16:20;101276.13;;;41.02;45.51
29535;BME280;72082;52.650;8.116;2023-09-08T12:18:45;101288.59;;;41.24;44.56
29535;BME280;72082;52.650;8.116;2023-09-08T12:21:11;101272.72;;;41.72;44.50
29535;BME280;72082;52.650;8.116;2023-09-08T12:23:50;101260.84;;;42.15;43.16
29535;BME280;72082;52.650;8.116;2023-09-08T12:26:15;101267.16;;;42.35;43.11
29535;BME280;72082;52.650;8.116;2023-09-08T12:28:41;101264.53;;;42.49;42.75
29535;BME280;72082;52.650;8.116;2023-09-08T12:31:06;101261.09;;;42.61;42.20
29535;BME280;72082;52.650;8.116;2023-09-08T12:33:31;101254.00;;;42.54;42.42
29535;BME280;72082;52.650;8.116;2023-09-08T12:35:56;101259.47;;;42.67;42.20
29535;BME280;72082;52.650;8.116;2023-09-08T12:38:22;101250.78;;;42.78;41.93
29535;BME280;72082;52.650;8.116;2023-09-08T12:40:47;101245.72;;;43.09;41.17
29535;BME280;72082;52.650;8.116;2023-09-08T12:43:13;101237.25;;;43.45;40.58
29535;BME280;72082;52.650;8.116;2023-09-08T12:45:38;101232.88;;;43.83;40.51
29535;BME280;72082;52.650;8.116;2023-09-08T12:48:03;101223.91;;;44.02;39.69
29535;BME280;72082;52.650;8.116;2023-09-08T12:50:29;101222.69;;;44.11;39.79
29535;BME280;72082;52.650;8.116;2023-09-08T12:52:54;101224.31;;;44.19;39.44